sensor_id;sensor_type;location;lat;lon;timestamp;pressure;altitude;pressure_sealevel;temperature;humidity
14612;BME280;7392;52.078;11.650;2024-03-22T00:02:23;101437.00;;;5.66;100.00
14612;BME280;7392;52.078;11.650;2024-03-22T00:04:49;101435.25;;;5.67;100.00
14612;BME280;7392;52.078;11.650;2024-03-22T00:07:15;101437.88;;;5.67;100.00
14612;BME280;7392;52.078;11.650;2024-03-22T00:09:43;101427.28;;;5.65;100.00
14612;BME280;7392;52.078;11.650;2024-03-22T00:12:10;101433.44;;;5.64;100.00
14612;BME280;7392;52.078;11.650;2024-03-22T00:14:36;101435.16;;;5.63;100.00
14612;BME280;7392;52.078;11.650;2024-03-22T00:17:03;101430.75;;;5.62;100.00
14612;BME280;7392;52.078;11.650;2024-03-22T00:19:29;101421.94;;;5.62;100.00
14612;BME280;7392;52.078;11.650;2024-03-22T00:21:56;101415.81;;;5.63;100.00
14612;BME280;7392;52.078;11.650;2024-03-22T00:24:22;101414.03;;;5.62;100.00
14612;BME280;7392;52.078;11.650;2024-03-22T00:26:50;101404.44;;;5.64;100.00
14612;BME280;7392;52.078;11.650;2024-03-22T00:29:16;101391.25;;;5.64;100.00
14612;BME280;7392;52.078;11.650;2024-03-22T00:31:44;101394.81;;;5.66;100.00
14612;BME280;7392;52.078;11.650;2024-03-22T00:34:10;101389.56;;;5.66;100.00
14612;BME280;7392;52.078;11.650;2024-03-22T00:36:37;101392.22;;;5.68;100.00
14612;BME280;7392;52.078;11.650;2024-03-22T00:39:03;101385.25;;;5.70;100.00
14612;BME280;7392;52.078;11.650;2024-03-22T00:41:30;101378.22;;;5.70;100.00
14612;BME280;7392;52.078;11.650;2024-03-22T00:43:58;101383.50;;;5.70;100.00
14612;BME280;7392;52.078;11.650;2024-03-22T00:46:25;101374.75;;;5.71;100.00
14612;BME280;7392;52.078;11.650;2024-03-22T00:48:51;101367.72;;;5.72;100.00
14612;BME280;7392;52.078;11.650;2024-03-22T00:51:18;101362.44;;;5.72;100.00
14612;BME280;7392;52.078;11.650;2024-03-22T00:53:43;101364.16;;;5.70;100.00
14612;BME280;7392;52.078;11.650;2024-03-22T00:56:10;101355.41;;;5.71;100.00
14612;BME280;7392;52.078;11.650;2024-03-22T00:58:36;101354.50;;;5.70;100.00
14612;BME280;7392;52.078;11.650;2024-03-22T01:01:04;101355.41;;;5.71;100.00
14612;BME280;7392;52.078;11.650;2024-03-22T01:03:31;101354.47;;;5.69;100.00
14612;BME280;7392;52.078;11.650;2024-03-22T01:05:58;101350.09;;;5.69;100.00
14612;BME280;7392;52.078;11.650;2024-03-22T01:08:23;101344.81;;;5.69;100.00
14612;BME280;7392;52.078;11.650;2024-03-22T01:10:50;101350.94;;;5.68;100.00
14612;BME280;7392;52.078;11.650;2024-03-22T01:13:17;101350.91;;;5.67;100.00
14612;BME280;7392;52.078;11.650;2024-03-22T01:15:43;101350.84;;;5.65;100.00
14612;BME280;7392;52.078;11.650;2024-03-22T01:18:11;101343.75;;;5.62;100.00
14612;BME280;7392;52.078;11.650;2024-03-22T01:20:38;101341.97;;;5.61;100.00
14612;BME280;7392;52.078;11.650;2024-03-22T01:23:04;101327.88;;;5.59;100.00
14612;BME280;7392;52.078;11.650;2024-03-22T01:25:31;101334.84;;;5.57;100.00
14612;BME280;7392;52.078;11.650;2024-03-22T01:27:57;101336.56;;;5.55;100.00
14612;BME280;7392;52.078;11.650;2024-03-22T01:30:23;101334.66;;;5.51;100.00
14612;BME280;7392;52.078;11.650;2024-03-22T01:32:51;101335.47;;;5.49;100.00
14612;BME280;7392;52.078;11.650;2024-03-22T01:35:19;101332.81;;;5.47;100.00
14612;BME280;7392;52.078;11.650;2024-03-22T01:37:45;101336.22;;;5.44;100.00
14612;BME280;7392;52.078;11.650;2024-03-22T01:40:13;101330.03;;;5.42;100.00
14612;BME280;7392;52.078;11.650;2024-03-22T01:42:39;101328.22;;;5.40;100.00
14612;BME280;7392;52.078;11.650;2024-03-22T01:45:06;101325.50;;;5.37;100.00
14612;BME280;7392;52.078;11.650;2024-03-22T01:47:33;101325.41;;;5.34;100.00
14612;BME280;7392;52.078;11.650;2024-03-22T01:50:00;101329.72;;;5.32;100.00
14612;BME280;7392;52.078;11.650;2024-03-22T01:52:28;101330.53;;;5.29;100.00
14612;BME280;7392;52.078;11.650;2024-03-22T01:54:55;101329.63;;;5.29;100.00
14612;BME280;7392;52.078;11.650;2024-03-22T01:57:21;101326.13;;;5.28;100.00
14612;BME280;7392;52.078;11.650;2024-03-22T01:59:49;101307.63;;;5.27;100.00
14612;BME280;7392;52.078;11.650;2024-03-22T02:02:17;101320.81;;;5.27;100.00
14612;BME280;7392;52.078;11.650;2024-03-22T02:04:44;101319.00;;;5.25;100.00
14612;BME280;7392;52.078;11.650;2024-03-22T02:07:09;101311.09;;;5.25;100.00
14612;BME280;7392;52.078;11.650;2024-03-22T02:09:38;101313.75;;;5.25;100.00
14612;BME280;7392;52.078;11.650;2024-03-22T02:12:05;101298.84;;;5.26;100.00
14612;BME280;7392;52.078;11.650;2024-03-22T02:14:31;101302.38;;;5.27;100.00
14612;BME280;7392;52.078;11.650;2024-03-22T02:16:58;101299.72;;;5.27;100.00
14612;BME280;7392;52.078;11.650;2024-03-22T02:19:25;101290.97;;;5.28;100.00
14612;BME280;7392;52.078;11.650;2024-03-22T02:21:51;101297.16;;;5.28;100.00
14612;BME280;7392;52.078;11.650;2024-03-22T02:24:19;101290.03;;;5.25;100.00
14612;BME280;7392;52.078;11.650;2024-03-22T02:26:45;101279.53;;;5.27;100.00
14612;BME280;7392;52.078;11.650;2024-03-22T02:29:12;101280.41;;;5.26;100.00
14612;BME280;7392;52.078;11.650;2024-03-22T02:31:38;101282.19;;;5.27;100.00
14612;BME280;7392;52.078;11.650;2024-03-22T02:34:05;101277.78;;;5.26;100.00
14612;BME280;7392;52.078;11.650;2024-03-22T02:36:30;101276.03;;;5.27;100.00
14612;BME280;7392;52.078;11.650;2024-03-22T02:38:57;101263.78;;;5.29;100.00
14612;BME280;7392;52.078;11.650;2024-03-22T02:41:25;101262.03;;;5.29;100.00
14612;BME280;7392;52.078;11.650;2024-03-22T02:43:51;101253.28;;;5.30;100.00
14612;BME280;7392;52.078;11.650;2024-03-22T02:46:17;101253.34;;;5.32;100.00
14612;BME280;7392;52.078;11.650;2024-03-22T02:48:44;101254.28;;;5.34;100.00
14612;BME280;7392;52.078;11.650;2024-03-22T02:51:10;101257.81;;;5.36;100.00
14612;BME280;7392;52.078;11.650;2024-03-22T02:53:37;101241.19;;;5.37;100.00
14612;BME280;7392;52.078;11.650;2024-03-22T02:56:03;101242.94;;;5.38;100.00
14612;BME280;7392;52.078;11.650;2024-03-22T02:58:32;101237.72;;;5.39;100.00
14612;BME280;7392;52.078;11.650;2024-03-22T03:00:57;101224.59;;;5.41;100.00
14612;BME280;7392;52.078;11.650;2024-03-22T03:03:24;101215.84;;;5.42;100.00
14612;BME280;7392;52.078;11.650;2024-03-22T03:05:50;101230.78;;;5.43;100.00
14612;BME280;7392;52.078;11.650;2024-03-22T03:08:17;101222.97;;;5.46;100.00
14612;BME280;7392;52.078;11.650;2024-03-22T03:10:43;101206.31;;;5.47;100.00
14612;BME280;7392;52.078;11.650;2024-03-22T03:13:11;101211.72;;;5.52;100.00
14612;BME280;7392;52.078;11.650;2024-03-22T03:15:38;101200.31;;;5.53;100.00
14612;BME280;7392;52.078;11.650;2024-03-22T03:18:05;101194.19;;;5.54;100.00
14612;BME280;7392;52.078;11.650;2024-03-22T03:20:31;101182.84;;;5.56;100.00
14612;BME280;7392;52.078;11.650;2024-03-22T03:22:58;101184.66;;;5.59;100.00
14612;BME280;7392;52.078;11.650;2024-03-22T03:25:25;101180.31;;;5.61;100.00
14612;BME280;7392;52.078;11.650;2024-03-22T03:27:52;101173.38;;;5.65;100.00
14612;BME280;7392;52.078;11.650;2024-03-22T03:30:18;101162.91;;;5.68;100.00
14612;BME280;7392;52.078;11.650;2024-03-22T03:32:46;101152.47;;;5.71;100.00
14612;BME280;7392;52.078;11.650;2024-03-22T03:35:12;101150.78;;;5.74;100.00
14612;BME280;7392;52.078;11.650;2024-03-22T03:37:39;101139.41;;;5.77;100.00
14612;BME280;7392;52.078;11.650;2024-03-22T03:40:06;101137.69;;;5.79;100.00
14612;BME280;7392;52.078;11.650;2024-03-22T03:42:33;101121.06;;;5.81;100.00
14612;BME280;7392;52.078;11.650;2024-03-22T03:45:00;101118.47;;;5.83;100.00
14612;BME280;7392;52.078;11.650;2024-03-22T03:47:27;101129.09;;;5.86;100.00
14612;BME280;7392;52.078;11.650;2024-03-22T03:49:54;101116.81;;;5.88;100.00
14612;BME280;7392;52.078;11.650;2024-03-22T03:52:21;101116.91;;;5.91;100.00
14612;BME280;7392;52.078;11.650;2024-03-22T03:54:47;101119.63;;;5.94;100.00
14612;BME280;7392;52.078;11.650;2024-03-22T03:57:14;101124.97;;;5.97;100.00
14612;BME280;7392;52.078;11.650;2024-03-22T03:59:40;101105.72;;;6.00;100.00
14612;BME280;7392;52.078;11.650;2024-03-22T04:02:07;101102.22;;;6.03;100.00
14612;BME280;7392;52.078;11.650;2024-03-22T04:04:33;101103.19;;;6.06;100.00
14612;BME280;7392;52.078;11.650;2024-03-22T04:07:01;101107.66;;;6.09;100.00
14612;BME280;7392;52.078;11.650;2024-03-22T04:09:27;101112.09;;;6.11;100.00
14612;BME280;7392;52.078;11.650;2024-03-22T04:11:54;101109.47;;;6.13;100.00
14612;BME280;7392;52.078;11.650;2024-03-22T04:14:20;101104.28;;;6.16;100.00
14612;BME280;7392;52.078;11.650;2024-03-22T04:16:47;101104.34;;;6.19;100.00
14612;BME280;7392;52.078;11.650;2024-03-22T04:19:13;101100.03;;;6.23;100.00
14612;BME280;7392;52.078;11.650;2024-03-22T04:21:40;101093.91;;;6.24;100.00
14612;BME280;7392;52.078;11.650;2024-03-22T04:24:07;101101.88;;;6.27;100.00
14612;BME280;7392;52.078;11.650;2024-03-22T04:26:34;101099.28;;;6.30;100.00
14612;BME280;7392;52.078;11.650;2024-03-22T04:29:00;101091.41;;;6.31;100.00
14612;BME280;7392;52.078;11.650;2024-03-22T04:31:27;101092.34;;;6.33;100.00
14612;BME280;7392;52.078;11.650;2024-03-22T04:33:53;101085.38;;;6.35;100.00
14612;BME280;7392;52.078;11.650;2024-03-22T04:36:20;101081.88;;;6.38;100.00
14612;BME280;7392;52.078;11.650;2024-03-22T04:38:46;101076.66;;;6.41;100.00
14612;BME280;7392;52.078;11.650;2024-03-22T04:41:14;101077.59;;;6.43;100.00
14612;BME280;7392;52.078;11.650;2024-03-22T04:43:42;101070.59;;;6.45;100.00
14612;BME280;7392;52.078;11.650;2024-03-22T04:46:09;101069.78;;;6.48;100.00
14612;BME280;7392;52.078;11.650;2024-03-22T04:48:35;101066.28;;;6.50;100.00
14612;BME280;7392;52.078;11.650;2024-03-22T04:51:02;101072.47;;;6.52;100.00
14612;BME280;7392;52.078;11.650;2024-03-22T04:53:28;101070.78;;;6.54;100.00
14612;BME280;7392;52.078;11.650;2024-03-22T04:55:55;101064.66;;;6.57;100.00
14612;BME280;7392;52.078;11.650;2024-03-22T04:58:22;101052.41;;;6.61;100.00
14612;BME280;7392;52.078;11.650;2024-03-22T05:00:55;101053.31;;;6.61;100.00
14612;BME280;7392;52.078;11.650;2024-03-22T05:03:21;101047.16;;;6.62;100.00
14612;BME280;7392;52.078;11.650;2024-03-22T05:05:49;101047.19;;;6.64;100.00
14612;BME280;7392;52.078;11.650;2024-03-22T05:08:16;101041.13;;;6.68;100.00
14612;BME280;7392;52.078;11.650;2024-03-22T05:10:42;101051.69;;;6.68;100.00
14612;BME280;7392;52.078;11.650;2024-03-22T05:13:08;101046.41;;;6.69;100.00
14612;BME280;7392;52.078;11.650;2024-03-22T05:15:37;101050.88;;;6.72;100.00
14612;BME280;7392;52.078;11.650;2024-03-22T05:18:03;101046.50;;;6.74;100.00
14612;BME280;7392;52.078;11.650;2024-03-22T05:20:30;101036.81;;;6.74;100.00
14612;BME280;7392;52.078;11.650;2024-03-22T05:22:56;101053.59;;;6.77;100.00
14612;BME280;7392;52.078;11.650;2024-03-22T05:25:23;101040.41;;;6.77;100.00
14612;BME280;7392;52.078;11.650;2024-03-22T05:27:49;101039.56;;;6.79;100.00
14612;BME280;7392;52.078;11.650;2024-03-22T05:30:16;101032.50;;;6.80;100.00
14612;BME280;7392;52.078;11.650;2024-03-22T05:32:43;101034.38;;;6.84;100.00
14612;BME280;7392;52.078;11.650;2024-03-22T05:35:10;101029.97;;;6.84;100.00
14612;BME280;7392;52.078;11.650;2024-03-22T05:37:36;101022.97;;;6.88;100.00
14612;BME280;7392;52.078;11.650;2024-03-22T05:40:03;101017.72;;;6.89;100.00
14612;BME280;7392;52.078;11.650;2024-03-22T05:42:30;101009.84;;;6.91;100.00
14612;BME280;7392;52.078;11.650;2024-03-22T05:44:57;101018.72;;;6.96;100.00
14612;BME280;7392;52.078;11.650;2024-03-22T05:47:23;101019.63;;;6.98;100.00
14612;BME280;7392;52.078;11.650;2024-03-22T05:49:51;101017.03;;;7.00;100.00
14612;BME280;7392;52.078;11.650;2024-03-22T05:52:17;101004.72;;;7.02;100.00
14612;BME280;7392;52.078;11.650;2024-03-22T05:54:44;100995.97;;;7.04;100.00
14612;BME280;7392;52.078;11.650;2024-03-22T05:57:11;100992.50;;;7.08;100.00
14612;BME280;7392;52.078;11.650;2024-03-22T05:59:38;100984.66;;;7.13;100.00
14612;BME280;7392;52.078;11.650;2024-03-22T06:02:04;100980.28;;;7.15;100.00
14612;BME280;7392;52.078;11.650;2024-03-22T06:04:31;100986.53;;;7.20;100.00
14612;BME280;7392;52.078;11.650;2024-03-22T06:06:59;100985.69;;;7.21;100.00
14612;BME280;7392;52.078;11.650;2024-03-22T06:09:28;100979.56;;;7.25;100.00
14612;BME280;7392;52.078;11.650;2024-03-22T06:12:03;100977.00;;;7.30;100.00
14612;BME280;7392;52.078;11.650;2024-03-22T06:14:31;100983.19;;;7.32;100.00
14612;BME280;7392;52.078;11.650;2024-03-22T06:16:57;100973.53;;;7.36;100.00
14612;BME280;7392;52.078;11.650;2024-03-22T06:19:24;100972.69;;;7.37;100.00
14612;BME280;7392;52.078;11.650;2024-03-22T06:21:50;100973.59;;;7.39;100.00
14612;BME280;7392;52.078;11.650;2024-03-22T06:24:18;100974.53;;;7.42;100.00
14612;BME280;7392;52.078;11.650;2024-03-22T06:26:44;100972.78;;;7.44;100.00
14612;BME280;7392;52.078;11.650;2024-03-22T06:29:11;100969.34;;;7.48;100.00
14612;BME280;7392;52.078;11.650;2024-03-22T06:31:38;100966.75;;;7.52;100.00
14612;BME280;7392;52.078;11.650;2024-03-22T06:34:05;100968.56;;;7.56;100.00
14612;BME280;7392;52.078;11.650;2024-03-22T06:36:31;100973.00;;;7.60;100.00
14612;BME280;7392;52.078;11.650;2024-03-22T06:38:58;100971.28;;;7.63;100.00
14612;BME280;7392;52.078;11.650;2024-03-22T06:41:27;100974.00;;;7.68;100.00
14612;BME280;7392;52.078;11.650;2024-03-22T06:43:54;100963.47;;;7.71;100.00
14612;BME280;7392;52.078;11.650;2024-03-22T06:46:20;100971.44;;;7.74;100.00
14612;BME280;7392;52.078;11.650;2024-03-22T06:48:47;100968.84;;;7.79;100.00
14612;BME280;7392;52.078;11.650;2024-03-22T06:51:13;100960.94;;;7.82;100.00
14612;BME280;7392;52.078;11.650;2024-03-22T06:53:40;100958.34;;;7.85;100.00
14612;BME280;7392;52.078;11.650;2024-03-22T06:56:06;100959.25;;;7.87;100.00
14612;BME280;7392;52.078;11.650;2024-03-22T06:58:36;100951.34;;;7.90;100.00
14612;BME280;7392;52.078;11.650;2024-03-22T07:01:02;100945.22;;;7.93;100.00
14612;BME280;7392;52.078;11.650;2024-03-22T07:03:29;100944.38;;;7.95;100.00
14612;BME280;7392;52.078;11.650;2024-03-22T07:05:55;100941.78;;;8.00;100.00
14612;BME280;7392;52.078;11.650;2024-03-22T07:08:23;100941.81;;;8.03;100.00
14612;BME280;7392;52.078;11.650;2024-03-22T07:10:50;100937.47;;;8.07;100.00
14612;BME280;7392;52.078;11.650;2024-03-22T07:13:18;100939.25;;;8.11;100.00
14612;BME280;7392;52.078;11.650;2024-03-22T07:15:45;100935.78;;;8.15;100.00
14612;BME280;7392;52.078;11.650;2024-03-22T07:18:13;100941.09;;;8.19;100.00
14612;BME280;7392;52.078;11.650;2024-03-22T07:20:39;100923.50;;;8.23;100.00
14612;BME280;7392;52.078;11.650;2024-03-22T07:23:06;100922.69;;;8.27;100.00
14612;BME280;7392;52.078;11.650;2024-03-22T07:25:32;100926.25;;;8.32;100.00
14612;BME280;7392;52.078;11.650;2024-03-22T07:27:58;100922.75;;;8.36;100.00
14612;BME280;7392;52.078;11.650;2024-03-22T07:30:24;100916.63;;;8.39;100.00
14612;BME280;7392;52.078;11.650;2024-03-22T07:32:53;100921.09;;;8.43;100.00
14612;BME280;7392;52.078;11.650;2024-03-22T07:35:19;100917.59;;;8.49;100.00
14612;BME280;7392;52.078;11.650;2024-03-22T07:37:45;100918.50;;;8.52;100.00
14612;BME280;7392;52.078;11.650;2024-03-22T07:40:11;100913.28;;;8.57;100.00
14612;BME280;7392;52.078;11.650;2024-03-22T07:42:38;100911.56;;;8.62;100.00
14612;BME280;7392;52.078;11.650;2024-03-22T07:45:05;100907.16;;;8.66;100.00
14612;BME280;7392;52.078;11.650;2024-03-22T07:47:32;100910.72;;;8.71;100.00
14612;BME280;7392;52.078;11.650;2024-03-22T07:49:59;100911.66;;;8.76;100.00
14612;BME280;7392;52.078;11.650;2024-03-22T07:52:26;100911.69;;;8.79;100.00
14612;BME280;7392;52.078;11.650;2024-03-22T07:54:52;100904.69;;;8.86;100.00
14612;BME280;7392;52.078;11.650;2024-03-22T07:57:18;100910.06;;;8.93;100.00
14612;BME280;7392;52.078;11.650;2024-03-22T07:59:46;100903.91;;;9.01;100.00
14612;BME280;7392;52.078;11.650;2024-03-22T08:02:13;100896.88;;;9.07;100.00
14612;BME280;7392;52.078;11.650;2024-03-22T08:04:39;100904.88;;;9.15;100.00
14612;BME280;7392;52.078;11.650;2024-03-22T08:07:07;100891.66;;;9.20;100.00
14612;BME280;7392;52.078;11.650;2024-03-22T08:09:33;100897.88;;;9.25;100.00
14612;BME280;7392;52.078;11.650;2024-03-22T08:12:00;100895.25;;;9.29;100.00
14612;BME280;7392;52.078;11.650;2024-03-22T08:14:26;100885.56;;;9.34;100.00
14612;BME280;7392;52.078;11.650;2024-03-22T08:16:53;100891.78;;;9.40;100.00
14612;BME280;7392;52.078;11.650;2024-03-22T08:19:19;100882.94;;;9.45;100.00
14612;BME280;7392;52.078;11.650;2024-03-22T08:21:46;100875.03;;;9.51;100.00
14612;BME280;7392;52.078;11.650;2024-03-22T08:24:13;100867.09;;;9.59;100.00
14612;BME280;7392;52.078;11.650;2024-03-22T08:26:40;100874.19;;;9.68;100.00
14612;BME280;7392;52.078;11.650;2024-03-22T08:29:06;100866.28;;;9.79;100.00
14612;BME280;7392;52.078;11.650;2024-03-22T08:31:33;100863.69;;;9.92;100.00
14612;BME280;7392;52.078;11.650;2024-03-22T08:33:59;100858.41;;;10.06;100.00
14612;BME280;7392;52.078;11.650;2024-03-22T08:36:27;100848.66;;;10.19;100.00
14612;BME280;7392;52.078;11.650;2024-03-22T08:38:53;100852.22;;;10.30;100.00
14612;BME280;7392;52.078;11.650;2024-03-22T08:41:21;100847.84;;;10.40;100.00
14612;BME280;7392;52.078;11.650;2024-03-22T08:43:47;100849.63;;;10.52;100.00
14612;BME280;7392;52.078;11.650;2024-03-22T08:46:14;100852.25;;;10.64;100.00
14612;BME280;7392;52.078;11.650;2024-03-22T08:48:40;100844.28;;;10.75;100.00
14612;BME280;7392;52.078;11.650;2024-03-22T08:51:07;100844.25;;;10.86;100.00
14612;BME280;7392;52.078;11.650;2024-03-22T08:53:33;100838.94;;;10.95;100.00
14612;BME280;7392;52.078;11.650;2024-03-22T08:56:00;100842.44;;;11.10;100.00
14612;BME280;7392;52.078;11.650;2024-03-22T08:58:28;100832.66;;;11.19;100.00
14612;BME280;7392;52.078;11.650;2024-03-22T09:00:54;100837.06;;;11.31;100.00
14612;BME280;7392;52.078;11.650;2024-03-22T09:03:20;100824.63;;;11.41;100.00
14612;BME280;7392;52.078;11.650;2024-03-22T09:05:47;100833.41;;;11.52;100.00
14612;BME280;7392;52.078;11.650;2024-03-22T09:08:17;100821.88;;;11.56;100.00
14612;BME280;7392;52.078;11.650;2024-03-22T09:10:45;100823.63;;;11.64;100.00
14612;BME280;7392;52.078;11.650;2024-03-22T09:13:11;100821.81;;;11.69;100.00
14612;BME280;7392;52.078;11.650;2024-03-22T09:15:40;100822.66;;;11.74;100.00
14612;BME280;7392;52.078;11.650;2024-03-22T09:18:06;100819.09;;;11.78;100.00
14612;BME280;7392;52.078;11.650;2024-03-22T09:20:33;100820.84;;;11.82;100.00
14612;BME280;7392;52.078;11.650;2024-03-22T09:22:59;100818.13;;;11.87;100.00
14612;BME280;7392;52.078;11.650;2024-03-22T09:25:27;100814.63;;;11.91;100.00
14612;BME280;7392;52.078;11.650;2024-03-22T09:27:53;100812.81;;;11.96;100.00
14612;BME280;7392;52.078;11.650;2024-03-22T09:30:19;100810.06;;;12.04;100.00
14612;BME280;7392;52.078;11.650;2024-03-22T09:32:47;100812.69;;;12.11;100.00
14612;BME280;7392;52.078;11.650;2024-03-22T09:35:14;100796.66;;;12.19;100.00
14612;BME280;7392;52.078;11.650;2024-03-22T09:37:40;100797.47;;;12.26;99.48
14612;BME280;7392;52.078;11.650;2024-03-22T09:40:08;100792.13;;;12.32;98.62
14612;BME280;7392;52.078;11.650;2024-03-22T09:42:37;100789.38;;;12.40;98.61
14612;BME280;7392;52.078;11.650;2024-03-22T09:45:08;100790.19;;;12.49;98.95
14612;BME280;7392;52.078;11.650;2024-03-22T09:47:35;100787.47;;;12.57;98.02
14612;BME280;7392;52.078;11.650;2024-03-22T09:50:06;100787.38;;;12.63;96.51
14612;BME280;7392;52.078;11.650;2024-03-22T09:52:33;100777.59;;;12.65;94.05
14612;BME280;7392;52.078;11.650;2024-03-22T09:55:00;100775.75;;;12.69;93.77
14612;BME280;7392;52.078;11.650;2024-03-22T09:57:29;100781.06;;;12.73;93.21
14612;BME280;7392;52.078;11.650;2024-03-22T09:59:56;100775.72;;;12.75;92.16
14612;BME280;7392;52.078;11.650;2024-03-22T10:02:23;100766.81;;;12.78;92.80
14612;BME280;7392;52.078;11.650;2024-03-22T10:04:51;100770.31;;;12.81;92.90
14612;BME280;7392;52.078;11.650;2024-03-22T10:07:19;100765.81;;;12.88;93.51
14612;BME280;7392;52.078;11.650;2024-03-22T10:09:46;100769.31;;;12.93;92.72
14612;BME280;7392;52.078;11.650;2024-03-22T10:12:12;100761.25;;;12.96;92.14
14612;BME280;7392;52.078;11.650;2024-03-22T10:14:42;100760.34;;;12.99;92.19
14612;BME280;7392;52.078;11.650;2024-03-22T10:17:08;100754.09;;;13.00;92.22
14612;BME280;7392;52.078;11.650;2024-03-22T10:19:36;100756.75;;;13.01;91.60
14612;BME280;7392;52.078;11.650;2024-03-22T10:22:03;100746.97;;;13.03;91.80
14612;BME280;7392;52.078;11.650;2024-03-22T10:24:32;100746.09;;;13.01;90.77
14612;BME280;7392;52.078;11.650;2024-03-22T10:26:59;100741.63;;;13.03;90.79
14612;BME280;7392;52.078;11.650;2024-03-22T10:29:26;100739.84;;;13.04;90.81
14612;BME280;7392;52.078;11.650;2024-03-22T10:31:55;100753.19;;;13.04;90.68
14612;BME280;7392;52.078;11.650;2024-03-22T10:34:22;100750.50;;;13.04;90.51
14612;BME280;7392;52.078;11.650;2024-03-22T10:36:49;100750.50;;;13.05;90.42
14612;BME280;7392;52.078;11.650;2024-03-22T10:39:17;100734.53;;;13.04;90.43
14612;BME280;7392;52.078;11.650;2024-03-22T10:41:46;100740.72;;;13.06;90.72
14612;BME280;7392;52.078;11.650;2024-03-22T10:44:13;100741.56;;;13.06;90.75
14612;BME280;7392;52.078;11.650;2024-03-22T10:46:43;100742.47;;;13.07;91.04
14612;BME280;7392;52.078;11.650;2024-03-22T10:49:15;100736.22;;;13.08;90.56
14612;BME280;7392;52.078;11.650;2024-03-22T10:51:42;100733.56;;;13.06;90.72
14612;BME280;7392;52.078;11.650;2024-03-22T10:54:13;100729.13;;;13.08;91.23
14612;BME280;7392;52.078;11.650;2024-03-22T10:56:40;100730.88;;;13.09;90.79
14612;BME280;7392;52.078;11.650;2024-03-22T10:59:09;100720.19;;;13.11;90.90
14612;BME280;7392;52.078;11.650;2024-03-22T11:01:38;100713.03;;;13.15;91.03
14612;BME280;7392;52.078;11.650;2024-03-22T11:04:05;100727.22;;;13.18;90.99
14612;BME280;7392;52.078;11.650;2024-03-22T11:06:32;100712.13;;;13.19;91.20
14612;BME280;7392;52.078;11.650;2024-03-22T11:08:59;100706.75;;;13.20;90.99
14612;BME280;7392;52.078;11.650;2024-03-22T11:11:28;100698.72;;;13.22;90.89
14612;BME280;7392;52.078;11.650;2024-03-22T11:13:55;100690.69;;;13.23;89.78
14612;BME280;7392;52.078;11.650;2024-03-22T11:16:23;100692.47;;;13.24;89.98
14612;BME280;7392;52.078;11.650;2024-03-22T11:18:50;100690.66;;;13.26;89.94
14612;BME280;7392;52.078;11.650;2024-03-22T11:21:17;100688.88;;;13.27;89.15
14612;BME280;7392;52.078;11.650;2024-03-22T11:23:45;100676.41;;;13.29;89.42
14612;BME280;7392;52.078;11.650;2024-03-22T11:26:11;100665.75;;;13.29;88.43
14612;BME280;7392;52.078;11.650;2024-03-22T11:28:38;100670.16;;;13.30;87.01
14612;BME280;7392;52.078;11.650;2024-03-22T11:31:04;100664.81;;;13.30;86.38
14612;BME280;7392;52.078;11.650;2024-03-22T11:33:33;100657.72;;;13.31;86.77
14612;BME280;7392;52.078;11.650;2024-03-22T11:35:58;100648.81;;;13.32;86.68
14612;BME280;7392;52.078;11.650;2024-03-22T11:38:26;100650.59;;;13.33;87.05
14612;BME280;7392;52.078;11.650;2024-03-22T11:40:52;100648.78;;;13.35;87.77
14612;BME280;7392;52.078;11.650;2024-03-22T11:43:21;100648.75;;;13.38;88.30
14612;BME280;7392;52.078;11.650;2024-03-22T11:45:47;100636.25;;;13.41;88.34
14612;BME280;7392;52.078;11.650;2024-03-22T11:48:14;100637.09;;;13.43;88.25
14612;BME280;7392;52.078;11.650;2024-03-22T11:50:41;100631.75;;;13.45;88.12
14612;BME280;7392;52.078;11.650;2024-03-22T11:53:08;100625.53;;;13.44;87.65
14612;BME280;7392;52.078;11.650;2024-03-22T11:55:35;100622.84;;;13.46;87.54
14612;BME280;7392;52.078;11.650;2024-03-22T11:58:02;100621.94;;;13.45;87.69
14612;BME280;7392;52.078;11.650;2024-03-22T12:00:29;100616.63;;;13.44;86.41
14612;BME280;7392;52.078;11.650;2024-03-22T12:02:55;100617.53;;;13.44;85.63
14612;BME280;7392;52.078;11.650;2024-03-22T12:05:21;100617.53;;;13.44;85.03
14612;BME280;7392;52.078;11.650;2024-03-22T12:07:51;100611.31;;;13.42;84.70
14612;BME280;7392;52.078;11.650;2024-03-22T12:10:17;100607.78;;;13.42;84.57
14612;BME280;7392;52.078;11.650;2024-03-22T12:12:44;100605.97;;;13.44;86.02
14612;BME280;7392;52.078;11.650;2024-03-22T12:15:10;100615.72;;;13.45;86.32
14612;BME280;7392;52.078;11.650;2024-03-22T12:17:37;100602.41;;;13.45;87.00
14612;BME280;7392;52.078;11.650;2024-03-22T12:20:06;100598.84;;;13.46;87.15
14612;BME280;7392;52.078;11.650;2024-03-22T12:22:34;100595.25;;;13.47;87.46
14612;BME280;7392;52.078;11.650;2024-03-22T12:25:01;100595.19;;;13.50;88.96
14612;BME280;7392;52.078;11.650;2024-03-22T12:27:30;100596.97;;;13.51;90.13
14612;BME280;7392;52.078;11.650;2024-03-22T12:29:55;100596.91;;;13.53;91.09
14612;BME280;7392;52.078;11.650;2024-03-22T12:32:22;100593.34;;;13.54;92.29
14612;BME280;7392;52.078;11.650;2024-03-22T12:34:48;100595.13;;;13.55;93.24
14612;BME280;7392;52.078;11.650;2024-03-22T12:37:15;100589.78;;;13.56;94.19
14612;BME280;7392;52.078;11.650;2024-03-22T12:39:41;100595.94;;;13.58;95.42
14612;BME280;7392;52.078;11.650;2024-03-22T12:42:10;100583.47;;;13.59;97.35
14612;BME280;7392;52.078;11.650;2024-03-22T12:44:37;100594.16;;;13.59;98.59
14612;BME280;7392;52.078;11.650;2024-03-22T12:47:03;100595.94;;;13.58;99.81
14612;BME280;7392;52.078;11.650;2024-03-22T12:49:30;100590.63;;;13.58;100.00